Time;durP1;ratioP1;P1;durP2;ratioP2;P2;SDS_P1;SDS_P2;PMS_P1;PMS_P2;Temp;Humidity;BMP_temperature;BMP_pressure;BME280_temperature;BME280_humidity;BME280_pressure;Samples;Min_cycle;Max_cycle;Signal;HPM_P1;HPM_P2
2021/08/26 00:07:02;;;;;;;57.62;18.70;;;;;;;16.34;100.00;100313.43;1701506;84;21537;-41
2021/08/26 00:09:29;;;;;;;81.02;21.40;;;;;;;16.34;100.00;100314.73;1706865;83;21530;-42
2021/08/26 00:11:56;;;;;;;54.58;19.62;;;;;;;16.30;100.00;100314.05;1706854;84;20975;-39
2021/08/26 00:14:24;;;;;;;95.65;23.00;;;;;;;16.29;100.00;100315.41;1706853;83;21019;-40
2021/08/26 00:16:51;;;;;;;78.95;20.95;;;;;;;16.28;100.00;100310.63;1712680;83;21065;-40
2021/08/26 00:19:19;;;;;;;108.67;24.60;;;;;;;16.29;100.00;100308.41;1686548;83;21278;-41
2021/08/26 00:21:45;;;;;;;166.15;29.05;;;;;;;16.32;100.00;100306.98;1674140;83;21589;-40
2021/08/26 00:24:13;;;;;;;92.57;24.77;;;;;;;16.36;100.00;100302.45;1715255;82;21489;-40
2021/08/26 00:26:39;;;;;;;123.80;24.92;;;;;;;16.40;100.00;100306.61;1714411;83;20991;-41
2021/08/26 00:29:06;;;;;;;90.95;21.73;;;;;;;16.43;100.00;100303.89;1723000;83;20987;-42
2021/08/26 00:31:32;;;;;;;96.25;21.68;;;;;;;16.43;100.00;100306.95;1709673;83;21031;-40
2021/08/26 00:33:59;;;;;;;92.30;23.45;;;;;;;16.47;100.00;100313.72;1707780;84;21080;-42
2021/08/26 00:36:25;;;;;;;88.60;21.73;;;;;;;16.43;100.00;100308.25;1698960;84;20976;-39
2021/08/26 00:38:51;;;;;;;78.05;20.52;;;;;;;16.40;100.00;100305.31;1706803;83;21654;-40
2021/08/26 00:41:19;;;;;;;66.82;20.95;;;;;;;16.41;100.00;100303.56;1706986;83;21533;-39
2021/08/26 00:43:46;;;;;;;54.38;19.25;;;;;;;16.40;100.00;100301.39;1681147;83;21549;-41
2021/08/26 00:46:14;;;;;;;69.92;20.92;;;;;;;16.38;100.00;100306.70;1674702;85;21039;-41
2021/08/26 00:48:46;;;;;;;40.98;17.62;;;;;;;16.36;100.00;100309.84;1674383;84;21508;-40
2021/08/26 00:51:14;;;;;;;49.67;17.25;;;;;;;16.34;100.00;100313.43;1674623;85;20968;-42
2021/08/26 00:53:40;;;;;;;58.15;17.45;;;;;;;16.30;100.00;100311.44;1674390;85;21039;-42
2021/08/26 00:56:14;;;;;;;27.75;15.58;;;;;;;16.28;100.00;100307.18;1673050;85;21115;-41
2021/08/26 00:58:50;;;;;;;29.02;15.65;;;;;;;16.25;100.00;100306.84;1673844;85;21548;-40
2021/08/26 01:01:29;;;;;;;;;;;;;;;16.24;100.00;100310.38;1685245;85;20992;-40
2021/08/26 01:04:12;;;;;;;43.52;17.52;;;;;;;16.23;100.00;100311.30;1685974;84;20179;-40
2021/08/26 01:07:06;;;;;;;46.23;18.00;;;;;;;16.25;100.00;100311.23;1691990;84;21066;-41
2021/08/26 01:09:44;;;;;;;39.40;18.05;;;;;;;16.22;100.00;100316.13;1691826;84;21156;-41
2021/08/26 01:12:14;;;;;;;45.45;17.17;;;;;;;16.19;100.00;100307.12;1691321;84;20988;-41
2021/08/26 01:14:41;;;;;;;39.45;16.37;;;;;;;16.15;100.00;100301.66;1687932;84;21044;-42
2021/08/26 01:17:07;;;;;;;51.13;16.75;;;;;;;16.13;100.00;100304.80;1686026;85;20937;-40
2021/08/26 01:19:35;;;;;;;43.02;16.17;;;;;;;16.11;100.00;100305.33;1685899;85;21596;-39
2021/08/26 01:22:04;;;;;;;38.28;15.30;;;;;;;16.10;100.00;100307.07;1686248;84;21117;-41
2021/08/26 01:24:30;;;;;;;43.08;17.02;;;;;;;16.05;100.00;100308.59;1688687;84;20992;-40
2021/08/26 01:26:59;;;;;;;39.88;16.75;;;;;;;16.03;100.00;100314.31;1691486;84;21031;-40
2021/08/26 01:29:26;;;;;;;60.17;15.20;;;;;;;16.00;100.00;100314.45;1691331;84;21035;-42
2021/08/26 01:31:53;;;;;;;50.33;16.17;;;;;;;15.97;100.00;100315.06;1691277;84;21047;-42
2021/08/26 01:34:20;;;;;;;48.25;16.27;;;;;;;15.97;100.00;100316.37;1688867;83;21341;-42
2021/08/26 01:36:47;;;;;;;53.75;17.32;;;;;;;15.94;100.00;100308.20;1686088;85;21632;-41
2021/08/26 01:39:15;;;;;;;55.60;17.23;;;;;;;15.89;100.00;100311.00;1686063;85;21505;-41
2021/08/26 01:41:55;;;;;;;59.55;17.32;;;;;;;15.88;100.00;100308.44;1686141;84;20992;-39
2021/08/26 01:44:31;;;;;;;53.42;16.73;;;;;;;15.85;100.00;100305.49;1686016;84;21110;-42
2021/08/26 01:47:00;;;;;;;40.15;15.30;;;;;;;15.85;100.00;100308.58;1686338;85;21192;-39
2021/08/26 01:49:28;;;;;;;51.85;16.35;;;;;;;15.82;100.00;100299.58;1688658;84;21028;-42
2021/08/26 01:51:54;;;;;;;44.20;16.45;;;;;;;15.81;100.00;100306.55;1691681;84;20984;-41
2021/08/26 01:54:21;;;;;;;43.83;17.35;;;;;;;15.75;100.00;100298.52;1689110;84;20952;-42
2021/08/26 01:56:48;;;;;;;46.00;16.30;;;;;;;15.72;100.00;100296.51;1685952;85;20992;-40
2021/08/26 01:59:14;;;;;;;37.15;15.32;;;;;;;15.68;100.00;100297.55;1685795;85;21072;-41
2021/08/26 02:01:40;;;;;;;51.18;15.65;;;;;;;15.67;100.00;100307.12;1685913;85;20984;-39
2021/08/26 02:04:07;;;;;;;43.20;15.58;;;;;;;15.64;100.00;100298.96;1688932;84;20967;-40
2021/08/26 02:06:34;;;;;;;42.88;15.95;;;;;;;15.62;100.00;100298.66;1691310;84;21699;-40
2021/08/26 02:09:01;;;;;;;52.43;15.70;;;;;;;15.61;100.00;100303.48;1665285;84;21621;-40
2021/08/26 02:11:28;;;;;;;46.40;16.65;;;;;;;15.60;100.00;100294.79;1665625;84;21805;-40
2021/08/26 02:13:56;;;;;;;55.52;16.37;;;;;;;15.59;100.00;100297.48;1703664;83;21028;-38
2021/08/26 02:16:23;;;;;;;41.63;15.30;;;;;;;15.58;100.00;100290.57;1720779;83;21090;-40
2021/08/26 02:18:49;;;;;;;43.78;15.75;;;;;;;15.56;100.00;100287.18;1705247;83;21621;-41
2021/08/26 02:21:15;;;;;;;35.58;13.95;;;;;;;15.57;100.00;100288.88;1691358;84;21009;-39
2021/08/26 02:23:42;;;;;;;46.75;15.38;;;;;;;15.59;100.00;100293.57;1663755;85;21192;-39
2021/08/26 02:26:09;;;;;;;38.58;14.03;;;;;;;15.60;100.00;100294.79;1686114;85;20957;-41
2021/08/26 02:28:35;;;;;;;39.38;15.03;;;;;;;15.63;100.00;100296.44;1686109;85;21032;-41
2021/08/26 02:31:02;;;;;;;35.15;14.70;;;;;;;15.62;100.00;100304.70;1686042;85;21423;-41
2021/08/26 02:33:29;;;;;;;38.15;15.25;;;;;;;15.62;100.00;100307.31;1686493;84;21008;-41
2021/08/26 02:35:55;;;;;;;38.20;14.00;;;;;;;15.61;100.00;100309.53;1667053;84;21030;-39
2021/08/26 02:38:22;;;;;;;39.35;14.87;;;;;;;15.59;100.00;100313.13;1692307;84;21020;-40
2021/08/26 02:40:48;;;;;;;31.15;13.50;;;;;;;15.56;100.00;100312.80;1692002;84;20948;-39
2021/08/26 02:43:15;;;;;;;40.83;14.53;;;;;;;15.54;100.00;100313.31;1689300;84;20993;-39
2021/08/26 02:45:41;;;;;;;46.08;15.20;;;;;;;15.52;100.00;100312.06;1685813;85;20953;-39
2021/08/26 02:48:08;;;;;;;47.53;16.32;;;;;;;15.51;100.00;100322.11;1686012;85;21028;-39
2021/08/26 02:50:35;;;;;;;41.92;14.70;;;;;;;15.49;100.00;100307.45;1685749;85;20999;-41
2021/08/26 02:53:02;;;;;;;41.08;15.13;;;;;;;15.47;100.00;100317.09;1687610;84;21051;-41
2021/08/26 02:55:30;;;;;;;35.52;13.60;;;;;;;15.44;100.00;100307.63;1691444;84;20940;-40
2021/08/26 02:57:57;;;;;;;35.88;14.30;;;;;;;15.43;100.00;100312.92;1691416;84;21027;-40
2021/08/26 03:00:23;;;;;;;31.70;13.60;;;;;;;15.41;100.00;100316.02;1689232;84;21011;-40
2021/08/26 03:02:50;;;;;;;21.73;13.10;;;;;;;15.38;100.00;100307.41;1656610;86;21529;-42
2021/08/26 03:05:16;;;;;;;32.65;14.58;;;;;;;15.39;100.00;100305.67;1659418;86;22191;-40
2021/08/26 03:07:43;;;;;;;26.77;13.68;;;;;;;15.38;100.00;100307.41;1659523;86;20983;-41
2021/08/26 03:10:10;;;;;;;25.17;13.25;;;;;;;15.38;100.00;100303.50;1659556;86;21584;-42
2021/08/26 03:12:38;;;;;;;26.75;13.45;;;;;;;15.37;100.00;100303.11;1659108;86;21470;-42
2021/08/26 03:15:06;;;;;;;35.70;14.13;;;;;;;15.39;100.00;100303.06;1707419;84;20956;-42
2021/08/26 03:17:32;;;;;;;23.47;12.73;;;;;;;15.39;100.00;100304.36;1685454;84;21035;-42
2021/08/26 03:19:59;;;;;;;30.80;13.53;;;;;;;15.42;100.00;100308.15;1672734;85;21056;-42
2021/08/26 03:22:26;;;;;;;33.55;14.03;;;;;;;15.44;100.00;100301.11;1650007;86;21706;-40
2021/08/26 03:24:52;;;;;;;32.35;15.10;;;;;;;15.51;100.00;100306.92;1654095;86;22437;-41
2021/08/26 03:27:18;;;;;;;33.73;14.45;;;;;;;15.55;100.00;100308.48;1654063;86;20945;-40
2021/08/26 03:29:45;;;;;;;28.67;13.65;;;;;;;15.60;100.00;100308.31;1654051;86;21051;-43
2021/08/26 03:32:11;;;;;;;29.20;13.55;;;;;;;15.63;100.00;100310.31;1653198;86;21051;-41
2021/08/26 03:34:38;;;;;;;28.83;13.65;;;;;;;15.66;100.00;100311.52;1707034;84;20987;-42
2021/08/26 03:37:05;;;;;;;33.88;12.95;;;;;;;15.72;100.00;100310.86;1685366;84;21100;-42
2021/08/26 03:39:32;;;;;;;23.35;12.47;;;;;;;15.76;100.00;100315.86;1653452;85;21600;-42
2021/08/26 03:41:59;;;;;;;21.65;12.82;;;;;;;15.85;100.00;100308.58;1648756;85;21042;-41
2021/08/26 03:44:25;;;;;;;26.77;13.80;;;;;;;15.94;100.00;100314.28;1654219;86;20957;-41
2021/08/26 03:46:51;;;;;;;22.58;12.78;;;;;;;16.04;100.00;100312.57;1654125;86;20948;-42
2021/08/26 03:49:18;;;;;;;24.90;12.40;;;;;;;16.13;100.00;100316.07;1635025;86;21012;-41
2021/08/26 03:51:45;;;;;;;21.25;12.60;;;;;;;16.22;100.00;100305.69;1653396;86;21076;-39
2021/08/26 03:54:12;;;;;;;21.70;12.03;;;;;;;16.30;100.00;100303.59;1635361;86;20989;-40
2021/08/26 03:56:38;;;;;;;26.75;13.43;;;;;;;16.41;100.00;100297.03;1654208;86;20941;-40
2021/08/26 03:59:05;;;;;;;25.82;13.40;;;;;;;16.53;100.00;100289.92;1654242;86;20991;-39
2021/08/26 04:01:33;;;;;;;18.90;12.93;;;;;;;16.66;100.00;100290.20;1657378;86;21101;-40
2021/08/26 04:03:59;;;;;;;19.87;12.85;;;;;;;16.79;100.00;100280.02;1710162;83;21018;-41
2021/08/26 04:06:26;;;;;;;20.82;12.55;;;;;;;16.94;100.00;100271.94;1710113;83;21037;-41
2021/08/26 04:08:53;;;;;;;20.35;12.60;;;;;;;17.08;100.00;100275.22;1648356;85;20996;-41
2021/08/26 04:11:20;;;;;;;21.02;12.98;;;;;;;17.21;100.00;100274.16;1673986;85;22196;-40
2021/08/26 04:13:46;;;;;;;24.98;12.18;;;;;;;17.30;100.00;100275.45;1661179;86;21114;-41
2021/08/26 04:16:13;;;;;;;21.73;11.73;;;;;;;17.41;100.00;100276.23;1661573;86;21525;-41
2021/08/26 04:18:41;;;;;;;24.15;11.83;;;;;;;17.51;100.00;100266.53;1635034;86;21561;-39
2021/08/26 04:21:08;;;;;;;17.25;11.20;;;;;;;17.62;100.00;100266.47;1694251;83;21035;-39
2021/08/26 04:23:35;;;;;;;21.07;12.25;;;;;;;17.75;100.00;100266.20;1663245;84;20960;-42
2021/08/26 04:26:01;;;;;;;20.23;11.68;;;;;;;17.92;100.00;100269.25;1673877;85;21153;-40
2021/08/26 04:28:28;;;;;;;22.25;11.20;;;;;;;18.07;100.00;100268.97;1645207;86;21037;-41
2021/08/26 04:30:55;;;;;;;20.77;12.65;;;;;;;18.19;100.00;100277.09;1710824;83;20939;-40
2021/08/26 04:33:21;;;;;;;22.95;11.00;;;;;;;18.31;100.00;100269.87;1718670;83;20975;-39
2021/08/26 04:35:48;;;;;;;21.62;11.60;;;;;;;18.47;100.00;100281.70;1718649;82;20974;-40
2021/08/26 04:38:14;;;;;;;18.90;11.43;;;;;;;18.61;99.57;100284.87;1718714;82;21058;-42
2021/08/26 04:40:41;;;;;;;31.40;12.05;;;;;;;18.78;98.90;100284.39;1718573;83;20982;-40
2021/08/26 04:43:07;;;;;;;54.83;14.07;;;;;;;18.95;97.13;100288.23;1689941;83;21003;-42
2021/08/26 04:45:34;;;;;;;32.08;12.30;;;;;;;19.14;96.07;100283.30;1689860;84;20936;-41
2021/08/26 04:48:00;;;;;;;36.75;12.88;;;;;;;19.38;95.58;100286.75;1690299;83;20976;-43
2021/08/26 04:50:26;;;;;;;32.78;13.03;;;;;;;19.66;95.01;100289.89;1703581;83;21136;-41
2021/08/26 04:52:53;;;;;;;36.53;12.40;;;;;;;19.94;93.20;100296.14;1710991;82;20916;-41
2021/08/26 04:55:19;;;;;;;29.10;11.55;;;;;;;20.20;92.15;100288.45;1710573;83;21023;-43
2021/08/26 04:57:46;;;;;;;23.83;11.38;;;;;;;20.46;90.47;100286.47;1674057;84;21478;-41
2021/08/26 05:00:14;;;;;;;27.73;10.78;;;;;;;20.66;88.63;100287.38;1656264;86;21008;-43
2021/08/26 05:02:40;;;;;;;26.52;11.70;;;;;;;20.86;87.61;100289.23;1682161;83;21739;-41
2021/08/26 05:05:08;;;;;;;25.05;11.00;;;;;;;21.08;86.34;100283.87;1703787;84;21532;-41
2021/08/26 05:07:36;;;;;;;17.85;10.25;;;;;;;21.25;84.41;100286.24;1703805;82;21525;-43
2021/08/26 05:10:04;;;;;;;17.10;9.83;;;;;;;21.40;83.78;100283.55;1703840;84;20943;-42
2021/08/26 05:12:31;;;;;;;18.60;10.25;;;;;;;21.52;82.96;100281.39;1699121;84;21019;-43
2021/08/26 05:15:00;;;;;;;22.70;11.45;;;;;;;21.68;82.61;100272.50;1686121;83;21007;-42
2021/08/26 05:17:26;;;;;;;19.25;9.85;;;;;;;21.88;81.77;100271.61;1670800;85;21288;-42
2021/08/26 05:19:52;;;;;;;21.93;10.18;;;;;;;22.04;81.15;100274.02;1687751;84;20980;-41
2021/08/26 05:22:19;;;;;;;19.73;10.43;;;;;;;22.15;80.56;100275.41;1686415;84;21877;-41
2021/08/26 05:24:47;;;;;;;22.55;10.48;;;;;;;22.22;80.28;100275.83;1685981;85;21036;-41
2021/08/26 05:27:14;;;;;;;15.35;10.40;;;;;;;22.22;79.50;100268.75;1686027;85;21172;-42
2021/08/26 05:29:40;;;;;;;18.50;10.55;;;;;;;22.25;79.33;100278.25;1686014;85;21033;-43
2021/08/26 05:32:08;;;;;;;18.02;10.65;;;;;;;22.19;79.02;100277.37;1689143;83;20955;-42
2021/08/26 05:34:34;;;;;;;19.30;10.38;;;;;;;22.17;78.91;100284.05;1691538;84;20987;-41
2021/08/26 05:37:01;;;;;;;24.67;10.45;;;;;;;22.19;78.94;100284.78;1691392;84;22051;-41
2021/08/26 05:39:27;;;;;;;29.63;12.50;;;;;;;22.20;78.64;100285.64;1691440;84;22008;-41
2021/08/26 05:41:56;;;;;;;34.88;11.35;;;;;;;22.17;78.59;100291.13;1663499;83;21577;-43
2021/08/26 05:44:22;;;;;;;34.08;11.63;;;;;;;22.19;78.47;100291.87;1685860;85;21566;-41
2021/08/26 05:46:48;;;;;;;29.40;10.75;;;;;;;22.25;77.88;100290.11;1686581;84;21533;-41
2021/08/26 05:49:15;;;;;;;19.87;11.88;;;;;;;22.29;77.44;100299.48;1688799;84;21036;-43
2021/08/26 05:51:41;;;;;;;18.48;10.95;;;;;;;22.35;77.02;100285.86;1689117;84;21154;-41
2021/08/26 05:54:08;;;;;;;20.57;11.35;;;;;;;22.48;76.48;100295.13;1682330;84;21566;-41
2021/08/26 05:56:35;;;;;;;19.15;10.82;;;;;;;22.58;76.19;100296.59;1676546;84;21026;-42
2021/08/26 05:59:02;;;;;;;30.92;11.25;;;;;;;22.68;76.39;100297.64;1694533;83;20966;-42
2021/08/26 06:01:30;;;;;;;17.07;10.15;;;;;;;22.73;75.22;100289.37;1687092;84;20977;-43
2021/08/26 06:03:57;;;;;;;20.40;10.30;;;;;;;22.73;74.58;100287.22;1647953;85;21843;-41
2021/08/26 06:06:23;;;;;;;21.00;11.25;;;;;;;22.78;74.75;100293.00;1660188;84;20959;-41
2021/08/26 06:08:50;;;;;;;23.52;10.78;;;;;;;22.90;74.65;100296.08;1679626;84;20919;-42
2021/08/26 06:11:17;;;;;;;24.45;10.18;;;;;;;22.98;73.49;100297.30;1650950;85;21024;-42
2021/08/26 06:13:43;;;;;;;20.43;10.60;;;;;;;23.03;72.69;100288.56;1667182;85;21018;-41
2021/08/26 06:16:10;;;;;;;23.05;10.20;;;;;;;23.08;71.64;100287.28;1678100;85;21150;-42
2021/08/26 06:18:36;;;;;;;19.92;10.43;;;;;;;23.14;71.50;100287.31;1672833;85;20967;-41
2021/08/26 06:21:03;;;;;;;14.83;10.00;;;;;;;23.18;68.91;100283.48;1669650;85;21606;-41
2021/08/26 06:23:29;;;;;;;17.85;9.70;;;;;;;23.25;69.80;100281.27;1678731;84;20934;-41
2021/08/26 06:25:57;;;;;;;16.12;8.98;;;;;;;23.37;69.53;100280.82;1680362;84;20985;-42
2021/08/26 06:28:23;;;;;;;17.32;8.50;;;;;;;23.56;69.31;100286.01;1680982;85;21139;-41
2021/08/26 06:30:50;;;;;;;12.78;8.35;;;;;;;23.74;67.33;100272.72;1720667;81;21547;-42
2021/08/26 06:33:17;;;;;;;16.85;8.70;;;;;;;23.92;66.97;100281.02;1728329;83;21565;-41
2021/08/26 06:35:43;;;;;;;17.07;8.63;;;;;;;24.10;66.41;100269.51;1715550;82;20976;-42
2021/08/26 06:38:10;;;;;;;16.15;8.55;;;;;;;24.28;65.91;100274.31;1702961;83;21023;-42
2021/08/26 06:40:36;;;;;;;17.75;8.65;;;;;;;24.38;64.65;100275.75;1702703;83;21223;-43
2021/08/26 06:43:04;;;;;;;11.68;7.67;;;;;;;24.47;64.25;100275.50;1713045;82;21039;-40
2021/08/26 06:45:31;;;;;;;18.75;8.78;;;;;;;24.57;63.55;100276.42;1712983;83;21004;-39
2021/08/26 06:47:57;;;;;;;15.32;7.60;;;;;;;24.64;64.44;100280.28;1702676;83;20936;-40
2021/08/26 06:50:23;;;;;;;15.53;7.22;;;;;;;24.77;61.91;100277.97;1703957;82;21056;-41
2021/08/26 06:52:50;;;;;;;10.55;6.85;;;;;;;24.89;62.28;100276.98;1714589;82;21047;-41
2021/08/26 06:55:16;;;;;;;12.03;7.25;;;;;;;25.03;60.03;100277.17;1719346;82;20991;-40
2021/08/26 06:57:43;;;;;;;11.90;6.67;;;;;;;25.16;60.24;100278.31;1713506;82;20976;-42
2021/08/26 07:00:12;;;;;;;8.50;6.62;;;;;;;25.29;59.54;100278.60;1720624;82;21533;-42
2021/08/26 07:02:38;;;;;;;8.20;7.00;;;;;;;25.45;60.48;100277.68;1724121;82;21019;-42
2021/08/26 07:05:06;;;;;;;10.88;7.10;;;;;;;25.58;57.97;100275.33;1726061;83;21131;-39
2021/08/26 07:07:34;;;;;;;12.80;6.67;;;;;;;25.71;58.80;100274.66;1686350;83;21009;-40
2021/08/26 07:10:01;;;;;;;9.48;6.20;;;;;;;25.83;55.61;100273.59;1726201;82;21007;-39
2021/08/26 07:12:31;;;;;;;14.13;6.78;;;;;;;25.89;56.55;100273.55;1726101;82;20979;-41
2021/08/26 07:14:55;;;;;;;17.87;6.53;;;;;;;26.03;56.24;100279.48;1725840;82;21501;-41
2021/08/26 07:17:22;;;;;;;9.58;5.85;;;;;;;26.24;55.42;100276.78;1726118;81;21907;-40
2021/08/26 07:19:48;;;;;;;10.90;6.65;;;;;;;26.50;54.36;100277.12;1726130;83;20983;-42
2021/08/26 07:22:15;;;;;;;13.45;6.22;;;;;;;26.66;54.51;100274.43;1726381;83;20924;-41
2021/08/26 07:24:42;;;;;;;9.38;5.87;;;;;;;26.86;53.91;100279.29;1721537;82;21005;-41
2021/08/26 07:27:09;;;;;;;10.58;5.90;;;;;;;27.08;53.85;100276.02;1695072;81;20960;-40
2021/08/26 07:29:35;;;;;;;10.63;5.58;;;;;;;27.34;52.99;100276.76;1674120;84;21105;-41
2021/08/26 07:32:03;;;;;;;7.87;5.28;;;;;;;27.49;52.07;100272.69;1670113;84;21021;-41
2021/08/26 07:34:30;;;;;;;8.43;5.33;;;;;;;27.53;50.97;100271.44;1666180;84;20971;-42
2021/08/26 07:36:57;;;;;;;5.70;5.20;;;;;;;27.47;50.22;100271.14;1646965;85;21039;-40
2021/08/26 07:39:24;;;;;;;9.18;5.40;;;;;;;27.35;50.96;100269.13;1633209;85;21017;-43
2021/08/26 07:41:50;;;;;;;11.65;5.28;;;;;;;27.36;51.82;100269.00;1633948;85;21057;-44
2021/08/26 07:44:17;;;;;;;12.65;6.10;;;;;;;27.42;51.70;100270.73;1691345;83;20983;-42
2021/08/26 07:46:43;;;;;;;11.12;5.40;;;;;;;27.49;51.14;100270.03;1691232;83;21535;-41
2021/08/26 07:49:10;;;;;;;12.40;5.47;;;;;;;27.50;51.06;100272.17;1664895;84;21029;-41
2021/08/26 07:51:36;;;;;;;8.70;5.55;;;;;;;27.45;52.12;100273.95;1638559;86;21066;-41
2021/08/26 07:54:02;;;;;;;7.92;5.15;;;;;;;27.49;52.48;100267.37;1630231;86;21055;-41
2021/08/26 07:56:31;;;;;;;12.58;5.00;;;;;;;27.61;52.22;100258.77;1641771;87;20983;-42
2021/08/26 07:58:58;;;;;;;10.43;5.17;;;;;;;27.72;52.22;100256.91;1692243;84;21277;-42
2021/08/26 08:01:25;;;;;;;8.93;5.40;;;;;;;27.83;51.92;100258.07;1658202;85;21003;-42
2021/08/26 08:03:51;;;;;;;7.33;5.25;;;;;;;27.81;51.74;100254.21;1647764;86;20996;-42
2021/08/26 08:06:18;;;;;;;11.85;5.12;;;;;;;27.77;52.67;100254.64;1678956;85;21828;-41
2021/08/26 08:08:45;;;;;;;6.45;5.20;;;;;;;27.80;51.47;100252.54;1678800;85;21582;-40
2021/08/26 08:11:11;;;;;;;12.00;5.60;;;;;;;27.72;50.99;100257.76;1678893;85;20980;-41
2021/08/26 08:13:39;;;;;;;7.05;5.00;;;;;;;27.64;51.29;100250.98;1678920;85;20960;-42
2021/08/26 08:16:06;;;;;;;12.10;4.62;;;;;;;27.56;52.00;100254.38;1646077;85;21905;-42
2021/08/26 08:18:33;;;;;;;11.57;5.47;;;;;;;27.44;52.67;100249.70;1708389;81;21825;-42
2021/08/26 08:21:02;;;;;;;9.58;5.25;;;;;;;27.37;53.59;100246.77;1708970;83;20940;-42
2021/08/26 08:23:29;;;;;;;8.88;5.22;;;;;;;27.32;53.77;100246.36;1728279;82;21497;-41
2021/08/26 08:25:56;;;;;;;7.37;4.95;;;;;;;27.25;52.44;100246.56;1728211;82;21268;-40
2021/08/26 08:28:22;;;;;;;16.00;5.45;;;;;;;27.13;52.17;100245.06;1728205;83;20987;-41
2021/08/26 08:30:49;;;;;;;16.95;5.45;;;;;;;27.08;52.35;100248.13;1728541;83;21095;-40
2021/08/26 08:33:16;;;;;;;10.05;5.70;;;;;;;27.07;52.60;100238.48;1728199;83;21010;-40
2021/08/26 08:35:44;;;;;;;10.82;5.33;;;;;;;27.10;52.82;100232.89;1723816;81;22608;-41
2021/08/26 08:38:11;;;;;;;9.50;5.20;;;;;;;27.07;52.52;100234.50;1704667;82;20981;-41
2021/08/26 08:40:39;;;;;;;7.17;4.72;;;;;;;27.09;54.17;100236.53;1742855;82;20954;-41
2021/08/26 08:43:05;;;;;;;12.18;5.15;;;;;;;27.15;53.97;100235.95;1721698;82;21787;-41
2021/08/26 08:45:32;;;;;;;8.68;5.20;;;;;;;27.22;53.66;100235.75;1742958;82;21543;-43
2021/08/26 08:47:59;;;;;;;11.00;4.62;;;;;;;27.30;52.18;100236.84;1742782;82;21009;-41
2021/08/26 08:50:27;;;;;;;12.55;5.50;;;;;;;27.32;53.58;100230.90;1742803;82;21496;-42
2021/08/26 08:52:54;;;;;;;9.58;4.97;;;;;;;27.31;54.43;100231.41;1743013;82;20957;-41
2021/08/26 08:55:20;;;;;;;13.35;5.30;;;;;;;27.38;53.95;100232.50;1743076;82;21143;-43
2021/08/26 08:57:46;;;;;;;10.75;4.40;;;;;;;27.47;53.28;100235.27;1742797;82;21590;-41
2021/08/26 09:00:16;;;;;;;6.20;5.03;;;;;;;27.58;52.80;100232.95;1742943;82;21024;-41
2021/08/26 09:02:43;;;;;;;10.45;4.87;;;;;;;27.71;51.79;100230.83;1743019;82;21021;-42
2021/08/26 09:05:09;;;;;;;11.25;5.05;;;;;;;27.79;52.22;100228.27;1742895;82;20981;-43
2021/08/26 09:07:37;;;;;;;7.22;5.60;;;;;;;27.86;51.86;100231.19;1742794;82;21759;-42
2021/08/26 09:10:06;;;;;;;9.80;4.85;;;;;;;27.99;51.72;100230.84;1742806;82;20969;-41
2021/08/26 09:12:44;;;;;;;11.55;5.35;;;;;;;28.12;50.87;100223.84;1742852;82;21036;-43
2021/08/26 09:15:17;;;;;;;10.18;4.87;;;;;;;28.23;50.51;100221.00;1743053;82;20989;-42
2021/08/26 09:17:45;;;;;;;13.75;5.70;;;;;;;28.34;49.81;100223.95;1735432;82;21032;-41
2021/08/26 09:20:15;;;;;;;11.68;5.25;;;;;;;28.47;50.01;100219.58;1713629;82;21568;-41
2021/08/26 09:22:42;;;;;;;7.78;5.15;;;;;;;28.65;49.08;100214.25;1713353;82;21576;-41
2021/08/26 09:25:09;;;;;;;14.47;5.85;;;;;;;28.86;48.84;100213.65;1713285;83;21080;-41
2021/08/26 09:27:43;;;;;;;16.55;5.55;;;;;;;29.00;48.25;100206.93;1679704;83;20972;-41
2021/08/26 09:30:16;;;;;;;9.33;5.37;;;;;;;29.16;48.85;100204.36;1713418;82;20976;-41
2021/08/26 09:32:47;;;;;;;10.98;5.30;;;;;;;29.36;48.70;100205.49;1703693;83;21368;-43
2021/08/26 09:35:22;;;;;;;8.40;5.03;;;;;;;29.43;48.15;100199.92;1710127;83;22211;-41
2021/08/26 09:37:53;;;;;;;;;;;;;;;29.53;47.48;100197.97;1701948;83;21455;-42
2021/08/26 09:40:22;;;;;;;12.95;5.80;;;;;;;29.63;47.69;100189.00;1683239;85;20157;-42
2021/08/26 09:43:06;;;;;;;10.70;5.40;;;;;;;29.78;46.37;100186.08;1696394;83;21558;-42
2021/08/26 09:45:36;;;;;;;11.30;5.92;;;;;;;29.95;46.55;100190.15;1738628;81;22193;-41
2021/08/26 09:48:11;;;;;;;13.13;6.08;;;;;;;29.98;46.28;100185.82;1690625;82;20944;-43
2021/08/26 09:50:50;;;;;;;11.93;6.60;;;;;;;29.97;45.76;100188.16;1690178;83;21524;-41
2021/08/26 09:53:25;;;;;;;12.75;6.10;;;;;;;29.99;46.22;100192.83;1718670;82;20998;-42
2021/08/26 09:55:56;;;;;;;10.25;6.67;;;;;;;30.00;47.25;100191.83;1718926;82;20970;-40
2021/08/26 09:58:25;;;;;;;17.10;6.10;;;;;;;30.00;47.11;100193.16;1663043;83;21022;-41
2021/08/26 10:01:15;;;;;;;12.58;6.67;;;;;;;29.96;47.05;100191.30;1718502;82;21791;-40
2021/08/26 10:03:41;;;;;;;12.73;5.95;;;;;;;29.96;48.14;100191.81;1718449;83;20966;-40
2021/08/26 10:06:09;;;;;;;23.50;7.00;;;;;;;29.91;48.98;100183.44;1718430;82;20971;-43
2021/08/26 10:08:41;;;;;;;22.50;6.97;;;;;;;29.86;49.30;100189.77;1690961;82;20991;-41
2021/08/26 10:11:09;;;;;;;16.77;7.65;;;;;;;29.85;48.29;100186.28;1689688;83;21697;-43
2021/08/26 10:13:38;;;;;;;11.20;6.65;;;;;;;29.90;48.79;100185.29;1718238;82;21006;-43
2021/08/26 10:16:04;;;;;;;15.13;7.37;;;;;;;29.95;47.70;100184.81;1718500;82;20995;-43
2021/08/26 10:18:31;;;;;;;16.73;7.70;;;;;;;29.92;47.59;100180.63;1690447;83;21050;-41
2021/08/26 10:20:58;;;;;;;17.52;7.08;;;;;;;30.02;44.99;100175.67;1718496;82;21063;-43
2021/08/26 10:23:25;;;;;;;20.40;8.03;;;;;;;30.12;44.94;100169.71;1700362;83;21207;-42
2021/08/26 10:25:52;;;;;;;24.63;7.85;;;;;;;30.15;44.50;100171.20;1688185;84;20999;-41
2021/08/26 10:28:18;;;;;;;18.15;8.28;;;;;;;30.09;45.06;100170.05;1688272;83;21026;-41
2021/08/26 10:30:45;;;;;;;20.90;7.92;;;;;;;30.01;45.91;100169.52;1688274;85;21022;-43
2021/08/26 10:33:23;;;;;;;23.25;8.03;;;;;;;30.07;46.95;100173.38;1688071;83;21026;-41
2021/08/26 10:35:58;;;;;;;23.73;8.28;;;;;;;30.15;47.97;100169.37;1688187;83;21595;-40
2021/08/26 10:38:29;;;;;;;27.15;8.18;;;;;;;30.24;47.69;100163.56;1687883;84;20888;-40
2021/08/26 10:40:57;;;;;;;20.30;7.78;;;;;;;30.26;46.95;100157.56;1686654;83;21503;-42
2021/08/26 10:43:40;;;;;;;26.30;8.03;;;;;;;30.37;46.81;100155.89;1687906;84;21030;-40
2021/08/26 10:46:08;;;;;;;26.25;7.42;;;;;;;30.44;45.69;100156.55;1688092;83;21031;-41
2021/08/26 10:48:36;;;;;;;16.85;7.40;;;;;;;30.43;46.03;100150.88;1660496;85;21085;-42
2021/08/26 10:51:16;;;;;;;12.45;7.40;;;;;;;30.38;46.88;100144.21;1660667;85;21002;-40
2021/08/26 10:53:48;;;;;;;17.85;8.40;;;;;;;30.36;47.17;100144.06;1660769;85;20948;-41
2021/08/26 10:56:29;;;;;;;18.85;7.92;;;;;;;30.39;48.35;100143.21;1687946;84;21027;-40
2021/08/26 10:58:59;;;;;;;14.45;7.67;;;;;;;30.37;48.07;100135.87;1691836;83;20936;-41
2021/08/26 11:01:42;;;;;;;12.82;7.00;;;;;;;30.31;47.39;100142.37;1693677;83;21178;-42
2021/08/26 11:04:27;;;;;;;13.90;6.20;;;;;;;30.11;46.77;100136.84;1685323;84;21027;-42
2021/08/26 11:06:52;;;;;;;11.63;6.25;;;;;;;29.86;47.00;100135.94;1701053;84;21012;-41
2021/08/26 11:09:21;;;;;;;20.52;7.25;;;;;;;29.63;46.33;100135.68;1705094;84;21250;-42
2021/08/26 11:11:53;;;;;;;18.10;6.20;;;;;;;29.45;47.59;100123.79;1705163;84;20999;-41
2021/08/26 11:14:25;;;;;;;20.50;7.03;;;;;;;29.29;47.54;100129.85;1701744;82;21170;-42
2021/08/26 11:16:55;;;;;;;22.20;7.15;;;;;;;29.22;49.87;100137.16;1709818;83;21018;-42
2021/08/26 11:19:28;;;;;;;22.48;6.70;;;;;;;29.11;51.02;100162.71;1713329;82;21023;-43
2021/08/26 11:22:04;;;;;;;13.15;5.12;;;;;;;28.78;52.39;100143.82;1689304;83;20915;-41